sensor_id;sensor_type;location;lat;lon;timestamp;pressure;altitude;pressure_sealevel;temperature;humidity
25156;BME280;21913;52.456;13.634;2022-09-25T00:04:24;100083.13;;;17.16;68.38
25156;BME280;21913;52.456;13.634;2022-09-25T00:09:28;100082.28;;;17.15;68.33
25156;BME280;21913;52.456;13.634;2022-09-25T00:14:29;100077.97;;;17.14;68.51
25156;BME280;21913;52.456;13.634;2022-09-25T00:19:31;100080.53;;;17.16;68.33
25156;BME280;21913;52.456;13.634;2022-09-25T00:24:33;100086.59;;;17.16;68.51
25156;BME280;21913;52.456;13.634;2022-09-25T00:29:36;100080.53;;;17.16;68.61
25156;BME280;21913;52.456;13.634;2022-09-25T00:34:39;100077.06;;;17.15;68.57
25156;BME280;21913;52.456;13.634;2022-09-25T00:39:40;100080.53;;;17.16;68.61
25156;BME280;21913;52.456;13.634;2022-09-25T00:44:46;100084.91;;;17.15;68.40
25156;BME280;21913;52.456;13.634;2022-09-25T00:49:52;100079.66;;;17.15;68.30
25156;BME280;21913;52.456;13.634;2022-09-25T00:55:03;100084.00;;;17.16;68.38
25156;BME280;21913;52.456;13.634;2022-09-25T01:00:09;100082.28;;;17.15;68.62
25156;BME280;21913;52.456;13.634;2022-09-25T01:05:15;100097.13;;;17.15;68.49
25156;BME280;21913;52.456;13.634;2022-09-25T01:10:18;100097.06;;;17.16;68.30
25156;BME280;21913;52.456;13.634;2022-09-25T01:15:27;100094.44;;;17.16;68.46
25156;BME280;21913;52.456;13.634;2022-09-25T01:36:52;100097.13;;;17.15;68.39
25156;BME280;21913;52.456;13.634;2022-09-25T01:42:04;100098.81;;;17.16;68.41
25156;BME280;21913;52.456;13.634;2022-09-25T01:47:16;100097.97;;;17.15;68.46
25156;BME280;21913;52.456;13.634;2022-09-25T01:52:27;100097.97;;;17.15;68.66
25156;BME280;21913;52.456;13.634;2022-09-25T01:57:39;100099.72;;;17.15;68.33
25156;BME280;21913;52.456;13.634;2022-09-25T02:02:46;100098.81;;;17.16;68.56
25156;BME280;21913;52.456;13.634;2022-09-25T02:07:54;100098.81;;;17.16;68.32
25156;BME280;21913;52.456;13.634;2022-09-25T02:13:13;100096.22;;;17.16;68.65
25156;BME280;21913;52.456;13.634;2022-09-25T02:18:17;100090.97;;;17.16;68.68
25156;BME280;21913;52.456;13.634;2022-09-25T02:29:03;100093.59;;;17.16;68.42
25156;BME280;21913;52.456;13.634;2022-09-25T02:34:06;100091.88;;;17.15;68.52
25156;BME280;21913;52.456;13.634;2022-09-25T02:39:14;100090.97;;;17.16;68.56
25156;BME280;21913;52.456;13.634;2022-09-25T02:49:23;100092.75;;;17.15;68.51
25156;BME280;21913;52.456;13.634;2022-09-25T02:54:47;100092.69;;;17.17;68.38
25156;BME280;21913;52.456;13.634;2022-09-25T02:59:57;100084.91;;;17.15;68.30
25156;BME280;21913;52.456;13.634;2022-09-25T03:05:01;100084.91;;;17.15;68.35
25156;BME280;21913;52.456;13.634;2022-09-25T03:10:04;100084.91;;;17.15;68.48
25156;BME280;21913;52.456;13.634;2022-09-25T03:15:07;100085.81;;;17.14;68.54
25156;BME280;21913;52.456;13.634;2022-09-25T03:20:08;100094.50;;;17.15;68.54
25156;BME280;21913;52.456;13.634;2022-09-25T03:25:10;100091.88;;;17.15;68.51
25156;BME280;21913;52.456;13.634;2022-09-25T03:30:12;100097.97;;;17.15;68.40
25156;BME280;21913;52.456;13.634;2022-09-25T03:35:13;100102.34;;;17.15;68.41
25156;BME280;21913;52.456;13.634;2022-09-25T03:40:15;100093.66;;;17.14;68.56
25156;BME280;21913;52.456;13.634;2022-09-25T03:45:16;100091.03;;;17.14;68.50
25156;BME280;21913;52.456;13.634;2022-09-25T03:50:18;100091.03;;;17.14;68.38
25156;BME280;21913;52.456;13.634;2022-09-25T03:55:19;100084.91;;;17.15;68.40
25156;BME280;21913;52.456;13.634;2022-09-25T04:00:21;100089.28;;;17.15;68.62
25156;BME280;21913;52.456;13.634;2022-09-25T04:05:22;100092.75;;;17.15;68.51
25156;BME280;21913;52.456;13.634;2022-09-25T04:10:24;100089.28;;;17.15;68.31
25156;BME280;21913;52.456;13.634;2022-09-25T04:15:25;100084.91;;;17.15;68.51
25156;BME280;21913;52.456;13.634;2022-09-25T04:20:27;100084.03;;;17.15;68.33
25156;BME280;21913;52.456;13.634;2022-09-25T04:25:28;100084.91;;;17.15;68.43
25156;BME280;21913;52.456;13.634;2022-09-25T04:30:30;100073.59;;;17.15;68.32
25156;BME280;21913;52.456;13.634;2022-09-25T04:35:31;100078.81;;;17.15;68.57
25156;BME280;21913;52.456;13.634;2022-09-25T04:40:33;100078.81;;;17.15;68.39
25156;BME280;21913;52.456;13.634;2022-09-25T04:45:35;100086.66;;;17.15;68.38
25156;BME280;21913;52.456;13.634;2022-09-25T04:50:36;100090.97;;;17.16;68.46
25156;BME280;21913;52.456;13.634;2022-09-25T04:55:38;100089.28;;;17.15;68.54
25156;BME280;21913;52.456;13.634;2022-09-25T05:00:39;100086.66;;;17.15;68.35
25156;BME280;21913;52.456;13.634;2022-09-25T05:05:41;100093.59;;;17.16;68.32
25156;BME280;21913;52.456;13.634;2022-09-25T05:10:42;100087.50;;;17.15;68.24
25156;BME280;21913;52.456;13.634;2022-09-25T05:15:44;100081.44;;;17.15;68.51
25156;BME280;21913;52.456;13.634;2022-09-25T05:20:46;100089.28;;;17.15;68.29
25156;BME280;21913;52.456;13.634;2022-09-25T05:25:55;100084.03;;;17.15;68.34
25156;BME280;21913;52.456;13.634;2022-09-25T05:31:00;100089.28;;;17.15;68.52
25156;BME280;21913;52.456;13.634;2022-09-25T05:36:04;100088.41;;;17.14;68.38
25156;BME280;21913;52.456;13.634;2022-09-25T05:41:08;100077.97;;;17.14;68.28
25156;BME280;21913;52.456;13.634;2022-09-25T05:46:10;100087.56;;;17.14;68.19
25156;BME280;21913;52.456;13.634;2022-09-25T05:51:12;100075.34;;;17.14;68.49
25156;BME280;21913;52.456;13.634;2022-09-25T05:56:13;100079.66;;;17.15;68.47
25156;BME280;21913;52.456;13.634;2022-09-25T06:01:15;100068.34;;;17.15;68.26
25156;BME280;21913;52.456;13.634;2022-09-25T06:06:16;100080.56;;;17.14;68.42
25156;BME280;21913;52.456;13.634;2022-09-25T06:11:18;100072.72;;;17.14;68.54
25156;BME280;21913;52.456;13.634;2022-09-25T06:16:19;100078.81;;;17.15;68.43
25156;BME280;21913;52.456;13.634;2022-09-25T06:21:21;100084.03;;;17.15;68.29
25156;BME280;21913;52.456;13.634;2022-09-25T06:26:22;100083.19;;;17.14;68.52
25156;BME280;21913;52.456;13.634;2022-09-25T06:31:24;100084.94;;;17.14;68.15
25156;BME280;21913;52.456;13.634;2022-09-25T06:36:25;100093.66;;;17.14;68.51
25156;BME280;21913;52.456;13.634;2022-09-25T06:41:27;100084.94;;;17.14;68.42
25156;BME280;21913;52.456;13.634;2022-09-25T06:46:29;100091.94;;;17.13;68.10
25156;BME280;21913;52.456;13.634;2022-09-25T06:51:33;100101.50;;;17.14;68.34
25156;BME280;21913;52.456;13.634;2022-09-25T06:56:35;100099.78;;;17.13;68.32
25156;BME280;21913;52.456;13.634;2022-09-25T07:01:36;100091.09;;;17.13;68.43
25156;BME280;21913;52.456;13.634;2022-09-25T07:06:38;100093.66;;;17.14;68.20
25156;BME280;21913;52.456;13.634;2022-09-25T07:11:39;100098.88;;;17.14;68.44
25156;BME280;21913;52.456;13.634;2022-09-25T07:16:41;100096.25;;;17.14;68.23
25156;BME280;21913;52.456;13.634;2022-09-25T07:21:42;100104.09;;;17.14;68.34
25156;BME280;21913;52.456;13.634;2022-09-25T07:26:44;100099.78;;;17.13;68.34
25156;BME280;21913;52.456;13.634;2022-09-25T07:31:45;100098.88;;;17.14;68.24
25156;BME280;21913;52.456;13.634;2022-09-25T07:36:47;100100.63;;;17.14;68.19
25156;BME280;21913;52.456;13.634;2022-09-25T07:41:48;100101.53;;;17.13;68.36
25156;BME280;21913;52.456;13.634;2022-09-25T07:46:49;100107.63;;;17.13;68.28
25156;BME280;21913;52.456;13.634;2022-09-25T07:51:51;100109.34;;;17.14;68.02
25156;BME280;21913;52.456;13.634;2022-09-25T07:56:53;100111.94;;;17.14;68.32
25156;BME280;21913;52.456;13.634;2022-09-25T08:01:54;100117.19;;;17.14;68.36
25156;BME280;21913;52.456;13.634;2022-09-25T08:06:59;100118.88;;;17.15;68.15
25156;BME280;21913;52.456;13.634;2022-09-25T08:12:01;100120.66;;;17.15;68.09
25156;BME280;21913;52.456;13.634;2022-09-25T08:17:03;100119.78;;;17.14;68.26
25156;BME280;21913;52.456;13.634;2022-09-25T08:22:05;100117.19;;;17.14;68.13
25156;BME280;21913;52.456;13.634;2022-09-25T08:27:06;100115.41;;;17.15;68.20
25156;BME280;21913;52.456;13.634;2022-09-25T08:32:08;100112.84;;;17.13;67.98
25156;BME280;21913;52.456;13.634;2022-09-25T08:37:09;100106.34;;;16.94;65.51
25156;BME280;21913;52.456;13.634;2022-09-25T08:42:18;100101.50;;;16.78;64.14
25156;BME280;21913;52.456;13.634;2022-09-25T08:47:21;100106.03;;;16.72;63.68
25156;BME280;21913;52.456;13.634;2022-09-25T08:52:25;100110.94;;;16.84;63.35
25156;BME280;21913;52.456;13.634;2022-09-25T09:02:41;100106.13;;;17.03;63.87
25156;BME280;21913;52.456;13.634;2022-09-25T09:07:53;100109.50;;;17.08;64.14
25156;BME280;21913;52.456;13.634;2022-09-25T09:18:24;100110.22;;;17.13;64.51
25156;BME280;21913;52.456;13.634;2022-09-25T09:23:33;100106.66;;;17.16;64.49
25156;BME280;21913;52.456;13.634;2022-09-25T09:49:35;100105.75;;;17.18;64.88
25156;BME280;21913;52.456;13.634;2022-09-25T09:59:51;100096.16;;;17.17;65.24
25156;BME280;21913;52.456;13.634;2022-09-25T10:04:54;100093.53;;;17.17;65.23
25156;BME280;21913;52.456;13.634;2022-09-25T10:09:57;100098.78;;;17.17;65.25
25156;BME280;21913;52.456;13.634;2022-09-25T10:15:02;100088.31;;;17.17;65.25
25156;BME280;21913;52.456;13.634;2022-09-25T10:20:21;100090.94;;;17.17;65.44
25156;BME280;21913;52.456;13.634;2022-09-25T10:25:35;100081.38;;;17.16;65.43
25156;BME280;21913;52.456;13.634;2022-09-25T10:30:44;100084.84;;;17.18;65.66
25156;BME280;21913;52.456;13.634;2022-09-25T10:35:47;100082.28;;;17.15;65.76
25156;BME280;21913;52.456;13.634;2022-09-25T10:40:58;100075.28;;;17.16;65.55
25156;BME280;21913;52.456;13.634;2022-09-25T10:46:11;100079.66;;;17.15;64.64
25156;BME280;21913;52.456;13.634;2022-09-25T10:51:13;100071.88;;;17.14;64.71
25156;BME280;21913;52.456;13.634;2022-09-25T10:56:30;100063.97;;;17.15;65.15
25156;BME280;21913;52.456;13.634;2022-09-25T11:01:35;100065.69;;;17.16;65.19
25156;BME280;21913;52.456;13.634;2022-09-25T11:06:42;100072.63;;;17.17;65.33
25156;BME280;21913;52.456;13.634;2022-09-25T11:11:46;100082.22;;;17.17;65.31
25156;BME280;21913;52.456;13.634;2022-09-25T11:16:53;100063.94;;;17.17;65.33
25156;BME280;21913;52.456;13.634;2022-09-25T11:27:31;100062.28;;;17.14;65.48
25156;BME280;21913;52.456;13.634;2022-09-25T11:49:29;100044.78;;;17.16;65.97
25156;BME280;21913;52.456;13.634;2022-09-25T12:00:43;100033.47;;;17.16;65.90
25156;BME280;21913;52.456;13.634;2022-09-25T12:17:12;100032.63;;;17.15;65.95
25156;BME280;21913;52.456;13.634;2022-09-25T12:22:24;100020.41;;;17.16;66.23
25156;BME280;21913;52.456;13.634;2022-09-25T12:33:07;100016.03;;;17.16;66.22
25156;BME280;21913;52.456;13.634;2022-09-25T12:38:17;100009.94;;;17.16;66.41
25156;BME280;21913;52.456;13.634;2022-09-25T12:43:26;100001.25;;;17.15;66.17
25156;BME280;21913;52.456;13.634;2022-09-25T12:59:41;99982.03;;;17.16;64.70
25156;BME280;21913;52.456;13.634;2022-09-25T13:15:32;99977.72;;;17.15;65.29
25156;BME280;21913;52.456;13.634;2022-09-25T13:25:51;99968.97;;;17.16;65.38
25156;BME280;21913;52.456;13.634;2022-09-25T13:31:01;99964.66;;;17.15;65.47
25156;BME280;21913;52.456;13.634;2022-09-25T13:41:19;99962.03;;;17.15;65.71
25156;BME280;21913;52.456;13.634;2022-09-25T13:46:22;99950.72;;;17.15;65.69
25156;BME280;21913;52.456;13.634;2022-09-25T13:56:48;99950.66;;;17.16;65.73
25156;BME280;21913;52.456;13.634;2022-09-25T14:01:56;99947.19;;;17.16;65.68
25156;BME280;21913;52.456;13.634;2022-09-25T14:07:25;99934.94;;;17.18;65.66
25156;BME280;21913;52.456;13.634;2022-09-25T14:12:35;99937.66;;;17.15;65.92
25156;BME280;21913;52.456;13.634;2022-09-25T14:17:41;99923.66;;;17.16;65.90
25156;BME280;21913;52.456;13.634;2022-09-25T14:22:52;99929.75;;;17.16;65.96
25156;BME280;21913;52.456;13.634;2022-09-25T14:27:54;99921.00;;;17.17;65.99
25156;BME280;21913;52.456;13.634;2022-09-25T14:33:18;99918.38;;;17.17;65.99
25156;BME280;21913;52.456;13.634;2022-09-25T14:49:23;99913.22;;;17.16;66.07
25156;BME280;21913;52.456;13.634;2022-09-25T14:54:30;99913.16;;;17.17;66.19
25156;BME280;21913;52.456;13.634;2022-09-25T14:59:37;99912.31;;;17.17;66.20
25156;BME280;21913;52.456;13.634;2022-09-25T15:04:39;99915.78;;;17.17;66.13
25156;BME280;21913;52.456;13.634;2022-09-25T15:09:44;99906.16;;;17.18;66.14
25156;BME280;21913;52.456;13.634;2022-09-25T15:15:22;99909.66;;;17.18;66.25
25156;BME280;21913;52.456;13.634;2022-09-25T15:20:32;99905.31;;;17.17;66.20
25156;BME280;21913;52.456;13.634;2022-09-25T15:25:43;99899.22;;;17.18;66.33
25156;BME280;21913;52.456;13.634;2022-09-25T15:30:56;99900.94;;;17.18;66.44
25156;BME280;21913;52.456;13.634;2022-09-25T15:36:01;99899.22;;;17.18;66.38
25156;BME280;21913;52.456;13.634;2022-09-25T15:41:12;99894.84;;;17.19;66.28
25156;BME280;21913;52.456;13.634;2022-09-25T15:46:31;99893.06;;;17.19;66.40
25156;BME280;21913;52.456;13.634;2022-09-25T15:51:35;99881.75;;;17.19;66.16
25156;BME280;21913;52.456;13.634;2022-09-25T15:56:49;99877.38;;;17.19;66.28
25156;BME280;21913;52.456;13.634;2022-09-25T16:01:51;99877.38;;;17.19;66.28
25156;BME280;21913;52.456;13.634;2022-09-25T16:06:53;99887.00;;;17.19;66.32
25156;BME280;21913;52.456;13.634;2022-09-25T16:17:39;99886.13;;;17.18;66.48
25156;BME280;21913;52.456;13.634;2022-09-25T16:22:45;99879.16;;;17.19;66.36
25156;BME280;21913;52.456;13.634;2022-09-25T16:27:48;99886.13;;;17.18;66.40
25156;BME280;21913;52.456;13.634;2022-09-25T16:32:54;99881.75;;;17.19;66.63
25156;BME280;21913;52.456;13.634;2022-09-25T16:37:57;99886.13;;;17.18;66.36
25156;BME280;21913;52.456;13.634;2022-09-25T16:43:00;99895.69;;;17.19;66.67
25156;BME280;21913;52.456;13.634;2022-09-25T16:48:39;99899.22;;;17.18;66.54
25156;BME280;21913;52.456;13.634;2022-09-25T16:53:40;99909.66;;;17.18;66.48
25156;BME280;21913;52.456;13.634;2022-09-25T16:58:42;99905.28;;;17.19;66.34
25156;BME280;21913;52.456;13.634;2022-09-25T17:03:44;99903.56;;;17.18;66.38
25156;BME280;21913;52.456;13.634;2022-09-25T17:08:46;99894.84;;;17.17;66.45
25156;BME280;21913;52.456;13.634;2022-09-25T17:13:48;99901.97;;;17.14;65.48
25156;BME280;21913;52.456;13.634;2022-09-25T17:18:50;99899.94;;;16.92;60.64
25156;BME280;21913;52.456;13.634;2022-09-25T17:23:51;99898.63;;;16.77;57.93
25156;BME280;21913;52.456;13.634;2022-09-25T17:28:53;99903.97;;;16.73;57.31
25156;BME280;21913;52.456;13.634;2022-09-25T17:33:54;99902.91;;;16.80;57.66
25156;BME280;21913;52.456;13.634;2022-09-25T17:38:56;99903.53;;;16.88;58.29
25156;BME280;21913;52.456;13.634;2022-09-25T17:43:58;99898.13;;;16.94;58.85
25156;BME280;21913;52.456;13.634;2022-09-25T17:48:59;99892.78;;;16.99;58.90
25156;BME280;21913;52.456;13.634;2022-09-25T17:54:01;99902.28;;;17.01;59.54
25156;BME280;21913;52.456;13.634;2022-09-25T17:59:02;99897.88;;;17.03;59.73
25156;BME280;21913;52.456;13.634;2022-09-25T18:04:21;99896.97;;;17.04;59.77
25156;BME280;21913;52.456;13.634;2022-09-25T18:09:24;99890.00;;;17.05;60.00
25156;BME280;21913;52.456;13.634;2022-09-25T18:14:25;99888.19;;;17.07;60.17
25156;BME280;21913;52.456;13.634;2022-09-25T18:19:27;99896.00;;;17.08;60.40
25156;BME280;21913;52.456;13.634;2022-09-25T18:24:28;99896.84;;;17.09;60.53
25156;BME280;21913;52.456;13.634;2022-09-25T18:29:30;99891.63;;;17.09;60.91
25156;BME280;21913;52.456;13.634;2022-09-25T18:34:31;99899.47;;;17.09;61.25
25156;BME280;21913;52.456;13.634;2022-09-25T18:39:33;99894.25;;;17.09;61.42
25156;BME280;21913;52.456;13.634;2022-09-25T18:44:34;99895.94;;;17.10;61.49
25156;BME280;21913;52.456;13.634;2022-09-25T18:49:38;99885.50;;;17.10;61.45
25156;BME280;21913;52.456;13.634;2022-09-25T18:54:40;99884.59;;;17.11;61.77
25156;BME280;21913;52.456;13.634;2022-09-25T18:59:41;99889.81;;;17.11;61.95
25156;BME280;21913;52.456;13.634;2022-09-25T19:04:43;99887.19;;;17.11;61.79
25156;BME280;21913;52.456;13.634;2022-09-25T19:09:45;99889.81;;;17.11;62.19
25156;BME280;21913;52.456;13.634;2022-09-25T19:14:47;99885.44;;;17.12;62.10
25156;BME280;21913;52.456;13.634;2022-09-25T19:19:48;99884.56;;;17.13;62.38
25156;BME280;21913;52.456;13.634;2022-09-25T19:24:50;99872.38;;;17.12;62.48
25156;BME280;21913;52.456;13.634;2022-09-25T19:29:51;99867.13;;;17.12;62.67
25156;BME280;21913;52.456;13.634;2022-09-25T19:34:53;99861.06;;;17.11;62.58
25156;BME280;21913;52.456;13.634;2022-09-25T19:39:55;99861.91;;;17.12;62.81
25156;BME280;21913;52.456;13.634;2022-09-25T19:44:57;99861.91;;;17.12;62.68
25156;BME280;21913;52.456;13.634;2022-09-25T19:49:58;99868.88;;;17.13;62.88
25156;BME280;21913;52.456;13.634;2022-09-25T19:55:00;99857.53;;;17.12;62.88
25156;BME280;21913;52.456;13.634;2022-09-25T20:00:03;99854.94;;;17.12;62.82
25156;BME280;21913;52.456;13.634;2022-09-25T20:05:10;99845.34;;;17.13;62.88
25156;BME280;21913;52.456;13.634;2022-09-25T20:10:11;99841.00;;;17.12;63.03
25156;BME280;21913;52.456;13.634;2022-09-25T20:15:13;99844.47;;;17.12;62.83
25156;BME280;21913;52.456;13.634;2022-09-25T20:20:14;99841.00;;;17.12;62.93
25156;BME280;21913;52.456;13.634;2022-09-25T20:25:16;99839.25;;;17.12;63.13
25156;BME280;21913;52.456;13.634;2022-09-25T20:30:18;99834.91;;;17.13;63.24
25156;BME280;21913;52.456;13.634;2022-09-25T20:35:20;99834.91;;;17.11;63.27
25156;BME280;21913;52.456;13.634;2022-09-25T20:40:22;99830.53;;;17.12;63.06
25156;BME280;21913;52.456;13.634;2022-09-25T20:45:23;99827.06;;;17.11;63.29
25156;BME280;21913;52.456;13.634;2022-09-25T20:50:25;99823.56;;;17.12;63.19
25156;BME280;21913;52.456;13.634;2022-09-25T20:55:26;99821.84;;;17.11;63.49
25156;BME280;21913;52.456;13.634;2022-09-25T21:00:28;99819.22;;;17.13;63.43
25156;BME280;21913;52.456;13.634;2022-09-25T21:05:29;99818.31;;;17.12;63.57
25156;BME280;21913;52.456;13.634;2022-09-25T21:10:36;99807.00;;;17.12;63.30
25156;BME280;21913;52.456;13.634;2022-09-25T21:15:37;99815.72;;;17.12;63.36
25156;BME280;21913;52.456;13.634;2022-09-25T21:20:39;99801.78;;;17.12;63.56
25156;BME280;21913;52.456;13.634;2022-09-25T21:25:40;99811.41;;;17.11;63.37
25156;BME280;21913;52.456;13.634;2022-09-25T21:30:42;99812.25;;;17.12;63.65
25156;BME280;21913;52.456;13.634;2022-09-25T21:35:46;99801.78;;;17.12;63.59
25156;BME280;21913;52.456;13.634;2022-09-25T21:40:48;99796.56;;;17.12;63.56
25156;BME280;21913;52.456;13.634;2022-09-25T21:45:49;99794.84;;;17.11;63.46
25156;BME280;21913;52.456;13.634;2022-09-25T21:50:56;99791.34;;;17.12;63.66
25156;BME280;21913;52.456;13.634;2022-09-25T22:01:11;99803.56;;;17.11;63.63
25156;BME280;21913;52.456;13.634;2022-09-25T22:06:16;99795.72;;;17.11;63.67
25156;BME280;21913;52.456;13.634;2022-09-25T22:11:18;99787.88;;;17.11;63.59
25156;BME280;21913;52.456;13.634;2022-09-25T22:16:23;99780.03;;;17.11;63.73
25156;BME280;21913;52.456;13.634;2022-09-25T22:21:28;99775.66;;;17.12;63.66
25156;BME280;21913;52.456;13.634;2022-09-25T22:26:34;99779.13;;;17.12;63.57
25156;BME280;21913;52.456;13.634;2022-09-25T22:31:36;99771.34;;;17.11;63.69
25156;BME280;21913;52.456;13.634;2022-09-25T22:36:38;99766.97;;;17.11;63.75
25156;BME280;21913;52.456;13.634;2022-09-25T22:41:39;99750.41;;;17.11;63.90
25156;BME280;21913;52.456;13.634;2022-09-25T22:46:41;99743.44;;;17.11;63.99
25156;BME280;21913;52.456;13.634;2022-09-25T22:51:43;99746.91;;;17.12;63.83
25156;BME280;21913;52.456;13.634;2022-09-25T22:56:44;99747.81;;;17.11;63.82
25156;BME280;21913;52.456;13.634;2022-09-25T23:01:51;99743.44;;;17.11;63.78
25156;BME280;21913;52.456;13.634;2022-09-25T23:06:53;99728.59;;;17.12;63.91
25156;BME280;21913;52.456;13.634;2022-09-25T23:11:55;99723.38;;;17.12;63.91
25156;BME280;21913;52.456;13.634;2022-09-25T23:16:57;99719.06;;;17.11;63.91
25156;BME280;21913;52.456;13.634;2022-09-25T23:21:59;99722.53;;;17.11;64.04
25156;BME280;21913;52.456;13.634;2022-09-25T23:27:01;99718.19;;;17.10;64.03
25156;BME280;21913;52.456;13.634;2022-09-25T23:32:02;99711.22;;;17.11;63.87
25156;BME280;21913;52.456;13.634;2022-09-25T23:37:04;99709.44;;;17.11;64.00
25156;BME280;21913;52.456;13.634;2022-09-25T23:42:05;99701.59;;;17.11;64.04
25156;BME280;21913;52.456;13.634;2022-09-25T23:47:07;99701.59;;;17.11;64.06
25156;BME280;21913;52.456;13.634;2022-09-25T23:52:08;99690.31;;;17.11;64.30
25156;BME280;21913;52.456;13.634;2022-09-25T23:57:10;99687.69;;;17.11;64.25
